| time (UTC) | temp C | wind direction | speed KPH | gust KPH | rain 1hr cm | rain 24hr cm | rain mn cm | humidity % | barometer mb |
| 20260507064825 | 11 | 225 | 1.6 | 1.6 | 0.00 | 0.00 | 0.00 | 84 | 1020.4 |
| 20260507064324 | 11 | 305 | 4.8 | 4.8 | 0.00 | 0.00 | 0.00 | 84 | 1020.4 |
| 20260507063821 | 11 | 255 | 0.0 | 1.6 | 0.00 | 0.00 | 0.00 | 83 | 1020.4 |
| 20260507063318 | 11 | 327 | 3.2 | 4.8 | 0.00 | 0.00 | 0.00 | 84 | 1020.3 |
| 20260507062815 | 11 | 261 | 1.6 | 1.6 | 0.00 | 0.00 | 0.00 | 84 | 1020.3 |
| 20260507062312 | 12 | 306 | 3.2 | 3.2 | 0.00 | 0.00 | 0.00 | 84 | 1020.2 |
| 20260507061810 | 12 | 296 | 1.6 | 1.6 | 0.00 | 0.00 | 0.00 | 84 | 1020.4 |
| 20260507061308 | 12 | 313 | 3.2 | 3.2 | 0.00 | 0.00 | 0.00 | 84 | 1020.2 |
| 20260507060806 | 12 | 328 | 1.6 | 3.2 | 0.00 | 0.00 | 0.00 | 84 | 1020.3 |
| 20260507060302 | 12 | 249 | 0.0 | 1.6 | 0.00 | 0.00 | 0.00 | 85 | 1020.5 |
| 20260507055759 | 12 | 205 | 1.6 | 1.6 | 0.00 | 0.00 | 0.00 | 84 | 1020.6 |
| 20260507055254 | 12 | 231 | 0.0 | 0.0 | 0.00 | 0.00 | 0.00 | 83 | 1020.4 |
| 20260507054750 | 12 | 317 | 3.2 | 3.2 | 0.00 | 0.00 | 0.00 | 83 | 1020.4 |
| 20260507054247 | 12 | 300 | 3.2 | 3.2 | 0.00 | 0.00 | 0.00 | 83 | 1020.4 |
| 20260507053744 | 12 | 313 | 6.4 | 8.0 | 0.00 | 0.00 | 0.00 | 83 | 1020.5 |
| 20260507053242 | 12 | 227 | 1.6 | 1.6 | 0.00 | 0.00 | 0.00 | 83 | 1020.6 |
| 20260507052741 | 12 | 306 | 3.2 | 3.2 | 0.00 | 0.00 | 0.00 | 82 | 1020.6 |
| 20260507052237 | 12 | 321 | 3.2 | 3.2 | 0.00 | 0.00 | 0.00 | 82 | 1020.6 |
| 20260507051735 | 12 | 284 | 3.2 | 3.2 | 0.00 | 0.00 | 0.00 | 82 | 1020.6 |
| 20260507051231 | 12 | 316 | 4.8 | 4.8 | 0.00 | 0.00 | 0.00 | 83 | 1020.7 |
| 20260507050728 | 12 | 334 | 4.8 | 4.8 | 0.00 | 0.00 | 0.00 | 83 | 1020.5 |
| 20260507050225 | 12 | 304 | 3.2 | 3.2 | 0.00 | 0.00 | 0.00 | 83 | 1020.6 |
| 20260507045722 | 12 | 279 | 1.6 | 1.6 | 0.00 | 0.00 | 0.00 | 83 | 1020.6 |
| 20260507045218 | 12 | 207 | 0.0 | 0.0 | 0.00 | 0.00 | 0.00 | 84 | 1020.6 |
| 20260507044716 | 12 | 338 | 3.2 | 3.2 | 0.00 | 0.00 | 0.00 | 83 | 1020.7 |
| 20260507044212 | 12 | 303 | 4.8 | 4.8 | 0.00 | 0.00 | 0.00 | 84 | 1020.6 |
| 20260507043708 | 12 | 307 | 4.8 | 4.8 | 0.00 | 0.00 | 0.00 | 84 | 1020.6 |
| 20260507043205 | 12 | 311 | 8.0 | 12.9 | 0.00 | 0.00 | 0.00 | 83 | 1020.4 |
| 20260507042702 | 12 | 290 | 4.8 | 4.8 | 0.00 | 0.00 | 0.00 | 83 | 1020.6 |
| 20260507042156 | 12 | 300 | 6.4 | 9.7 | 0.00 | 0.00 | 0.00 | 83 | 1020.5 |
| 20260507041654 | 12 | 358 | 4.8 | 9.7 | 0.00 | 0.00 | 0.00 | 82 | 1020.8 |
| 20260507041150 | 12 | 298 | 6.4 | 9.7 | 0.00 | 0.00 | 0.00 | 83 | 1020.2 |
| 20260507040648 | 13 | 329 | 6.4 | 9.7 | 0.00 | 0.00 | 0.00 | 83 | 1020.5 |
| 20260507040144 | 13 | 245 | 4.8 | 4.8 | 0.00 | 0.00 | 0.00 | 82 | 1020.4 |
| 20260507035640 | 13 | 317 | 3.2 | 4.8 | 0.00 | 0.00 | 0.00 | 82 | 1020.4 |
| 20260507035136 | 13 | 310 | 4.8 | 8.0 | 0.00 | 0.00 | 0.00 | 82 | 1020.3 |
| 20260507034633 | 13 | 312 | 4.8 | 9.7 | 0.00 | 0.00 | 0.00 | 83 | 1020.3 |
| 20260507034131 | 13 | 306 | 4.8 | 8.0 | 0.00 | 0.00 | 0.00 | 83 | 1020.2 |
| 20260507033629 | 13 | 307 | 8.0 | 12.9 | 0.00 | 0.00 | 0.00 | 83 | 1020.3 |
| 20260507033125 | 13 | 323 | 4.8 | 4.8 | 0.00 | 0.00 | 0.00 | 83 | 1020.1 |
| 20260507032623 | 13 | 327 | 8.0 | 9.7 | 0.00 | 0.00 | 0.00 | 83 | 1019.9 |
| 20260507032119 | 13 | 293 | 3.2 | 4.8 | 0.00 | 0.00 | 0.00 | 83 | 1020.1 |
| 20260507031616 | 13 | 297 | 9.7 | 12.9 | 0.00 | 0.00 | 0.00 | 83 | 1019.9 |
| 20260507031112 | 13 | 318 | 6.4 | 9.7 | 0.00 | 0.00 | 0.00 | 83 | 1020.0 |
| 20260507030609 | 13 | 335 | 4.8 | 8.0 | 0.00 | 0.00 | 0.00 | 83 | 1019.9 |
| 20260507030107 | 13 | 306 | 9.7 | 11.3 | 0.00 | 0.00 | 0.00 | 83 | 1019.7 |
| 20260507025604 | 13 | 304 | 9.7 | 12.9 | 0.00 | 0.00 | 0.00 | 83 | 1019.5 |
| 20260507025100 | 13 | 310 | 11.3 | 16.1 | 0.00 | 0.00 | 0.00 | 82 | 1019.8 |
| 20260507024559 | 13 | 327 | 6.4 | 9.7 | 0.00 | 0.00 | 0.00 | 82 | 1019.8 |
| 20260507024056 | 13 | 317 | 8.0 | 9.7 | 0.00 | 0.00 | 0.00 | 82 | 1019.6 |
| 20260507023551 | 13 | 322 | 8.0 | 11.3 | 0.00 | 0.00 | 0.00 | 82 | 1019.5 |
| 20260507023049 | 13 | 318 | 8.0 | 11.3 | 0.00 | 0.00 | 0.00 | 82 | 1019.4 |
| 20260507022546 | 13 | 314 | 8.0 | 11.3 | 0.00 | 0.00 | 0.00 | 82 | 1019.3 |
| 20260507022041 | 13 | 311 | 1.6 | 4.8 | 0.00 | 0.00 | 0.00 | 81 | 1019.4 |
| 20260507021537 | 14 | 338 | 4.8 | 8.0 | 0.00 | 0.00 | 0.00 | 81 | 1019.4 |
| 20260507021034 | 14 | 329 | 9.7 | 11.3 | 0.00 | 0.00 | 0.00 | 81 | 1019.5 |
| 20260507020531 | 14 | 304 | 6.4 | 8.0 | 0.00 | 0.00 | 0.00 | 81 | 1019.4 |
| 20260507020028 | 14 | 301 | 4.8 | 4.8 | 0.00 | 0.00 | 0.00 | 80 | 1019.7 |
| 20260507015526 | 15 | 339 | 3.2 | 4.8 | 0.00 | 0.00 | 0.00 | 81 | 1019.6 |
| 20260507015023 | 15 | 301 | 3.2 | 4.8 | 0.00 | 0.00 | 0.00 | 80 | 1019.6 |
| 20260507014520 | 15 | 301 | 4.8 | 4.8 | 0.00 | 0.00 | 0.00 | 80 | 1019.5 |
| 20260507014015 | 15 | 2 | 8.0 | 9.7 | 0.00 | 0.00 | 0.00 | 80 | 1019.7 |
| 20260507013512 | 15 | 309 | 9.7 | 11.3 | 0.00 | 0.00 | 0.00 | 81 | 1019.9 |
| 20260507013010 | 15 | 346 | 8.0 | 9.7 | 0.00 | 0.00 | 0.00 | 81 | 1019.8 |
| 20260507012507 | 15 | 319 | 1.6 | 3.2 | 0.00 | 0.00 | 0.00 | 81 | 1019.9 |
| 20260507012003 | 15 | 324 | 4.8 | 8.0 | 0.00 | 0.00 | 0.00 | 80 | 1020.0 |
| 20260507011500 | 15 | 313 | 4.8 | 4.8 | 0.00 | 0.00 | 0.00 | 80 | 1019.8 |
| 20260507010956 | 15 | 335 | 9.7 | 12.9 | 0.00 | 0.00 | 0.00 | 80 | 1019.9 |
| 20260507010451 | 15 | 320 | 6.4 | 11.3 | 0.00 | 0.00 | 0.00 | 80 | 1019.9 |
| 20260507005948 | 15 | 0 | 8.0 | 9.7 | 0.00 | 0.00 | 0.00 | 80 | 1019.9 |
| 20260507005445 | 15 | 329 | 6.4 | 9.7 | 0.00 | 0.00 | 0.00 | 80 | 1019.8 |
| 20260507004941 | 15 | 319 | 8.0 | 11.3 | 0.00 | 0.00 | 0.00 | 80 | 1019.9 |
| 20260507004438 | 15 | 325 | 8.0 | 12.9 | 0.00 | 0.00 | 0.00 | 80 | 1020.2 |
| 20260507003936 | 15 | 342 | 6.4 | 9.7 | 0.00 | 0.00 | 0.00 | 80 | 1019.8 |
| 20260507003431 | 15 | 349 | 6.4 | 9.7 | 0.00 | 0.00 | 0.00 | 79 | 1019.8 |
| 20260507002926 | 15 | 11 | 1.6 | 3.2 | 0.00 | 0.00 | 0.00 | 81 | 1019.9 |
| 20260507002422 | 15 | 345 | 9.7 | 14.5 | 0.00 | 0.00 | 0.00 | 80 | 1019.8 |
| 20260507001920 | 15 | 354 | 4.8 | 8.0 | 0.00 | 0.00 | 0.00 | 80 | 1019.7 |
| 20260507001416 | 15 | 320 | 4.8 | 9.7 | 0.00 | 0.00 | 0.00 | 79 | 1020.0 |
| 20260507000914 | 15 | 319 | 11.3 | 14.5 | 0.00 | 0.00 | 0.00 | 79 | 1019.9 |
| 20260507000409 | 15 | 47 | 9.7 | 14.5 | 0.00 | 0.00 | 0.00 | 78 | 1019.7 |
| 20260506235905 | 16 | 339 | 8.0 | 12.9 | 0.00 | 0.00 | 0.00 | 78 | 1019.8 |
| 20260506235403 | 16 | 321 | 4.8 | 4.8 | 0.00 | 0.00 | 0.00 | 78 | 1019.8 |
| 20260506234858 | 16 | 305 | 11.3 | 12.9 | 0.00 | 0.00 | 0.00 | 77 | 1019.9 |
| 20260506234356 | 16 | 349 | 11.3 | 12.9 | 0.00 | 0.00 | 0.00 | 78 | 1019.8 |
| 20260506233853 | 16 | 301 | 12.9 | 16.1 | 0.00 | 0.00 | 0.00 | 77 | 1019.6 |
| 20260506233349 | 16 | 293 | 11.3 | 16.1 | 0.00 | 0.00 | 0.00 | 76 | 1019.8 |
| 20260506232846 | 16 | 337 | 11.3 | 12.9 | 0.00 | 0.00 | 0.00 | 76 | 1019.5 |
| 20260506232342 | 16 | 16 | 6.4 | 9.7 | 0.00 | 0.00 | 0.00 | 76 | 1019.7 |
| 20260506231838 | 16 | 305 | 8.0 | 9.7 | 0.00 | 0.00 | 0.00 | 75 | 1019.7 |
| 20260506231337 | 16 | 18 | 8.0 | 9.7 | 0.00 | 0.00 | 0.00 | 76 | 1019.7 |
| 20260506230834 | 16 | 341 | 8.0 | 14.5 | 0.00 | 0.00 | 0.00 | 76 | 1019.6 |
| 20260506230330 | 16 | 316 | 11.3 | 14.5 | 0.00 | 0.00 | 0.00 | 75 | 1019.7 |
| 20260506225826 | 17 | 320 | 8.0 | 11.3 | 0.00 | 0.00 | 0.00 | 75 | 1019.6 |
| 20260506225324 | 16 | 237 | 0.0 | 1.6 | 0.00 | 0.00 | 0.00 | 76 | 1019.6 |
| 20260506224821 | 17 | 317 | 9.7 | 14.5 | 0.00 | 0.00 | 0.00 | 75 | 1019.7 |
| 20260506224318 | 17 | 310 | 14.5 | 17.7 | 0.00 | 0.00 | 0.00 | 74 | 1019.9 |
| 20260506223814 | 17 | 307 | 3.2 | 4.8 | 0.00 | 0.00 | 0.00 | 75 | 1019.8 |
| 20260506223309 | 17 | 9 | 8.0 | 9.7 | 0.00 | 0.00 | 0.00 | 74 | 1019.7 |
| 20260506222807 | 18 | 320 | 9.7 | 11.3 | 0.00 | 0.00 | 0.00 | 73 | 1019.6 |
| 20260506222305 | 17 | 283 | 3.2 | 4.8 | 0.00 | 0.00 | 0.00 | 74 | 1019.6 |
| 20260506221800 | 18 | 332 | 9.7 | 12.9 | 0.00 | 0.00 | 0.00 | 72 | 1019.8 |
| 20260506221258 | 18 | 321 | 6.4 | 9.7 | 0.00 | 0.00 | 0.00 | 73 | 1019.9 |
| 20260506220755 | 17 | 314 | 6.4 | 9.7 | 0.00 | 0.00 | 0.00 | 72 | 1019.7 |
| 20260506220250 | 18 | 205 | 1.6 | 1.6 | 0.00 | 0.00 | 0.00 | 73 | 1019.6 |
| 20260506215747 | 17 | 330 | 4.8 | 4.8 | 0.00 | 0.00 | 0.00 | 73 | 1019.9 |
| 20260506215243 | 18 | 16 | 4.8 | 8.0 | 0.00 | 0.00 | 0.00 | 71 | 1020.1 |
| 20260506214739 | 18 | 274 | 3.2 | 8.0 | 0.00 | 0.00 | 0.00 | 71 | 1019.6 |
| 20260506214236 | 17 | 326 | 3.2 | 4.8 | 0.00 | 0.00 | 0.00 | 73 | 1019.8 |
| 20260506213735 | 18 | 55 | 4.8 | 8.0 | 0.00 | 0.00 | 0.00 | 71 | 1019.8 |
| 20260506213231 | 18 | 12 | 6.4 | 9.7 | 0.00 | 0.00 | 0.00 | 72 | 1019.8 |
| 20260506212729 | 17 | 12 | 4.8 | 8.0 | 0.00 | 0.00 | 0.00 | 72 | 1019.7 |
| 20260506212224 | 17 | 306 | 4.8 | 4.8 | 0.00 | 0.00 | 0.00 | 72 | 1019.9 |
| 20260506211719 | 18 | 295 | 3.2 | 3.2 | 0.00 | 0.00 | 0.00 | 73 | 1020.1 |
| 20260506211216 | 17 | 51 | 3.2 | 3.2 | 0.00 | 0.00 | 0.00 | 72 | 1019.8 |
| 20260506210713 | 17 | 313 | 3.2 | 4.8 | 0.00 | 0.00 | 0.00 | 72 | 1019.8 |
| 20260506210210 | 17 | 9 | 3.2 | 3.2 | 0.00 | 0.00 | 0.00 | 73 | 1019.7 |
| 20260506205707 | 17 | 346 | 4.8 | 4.8 | 0.00 | 0.00 | 0.00 | 72 | 1019.8 |
| 20260506205202 | 17 | 33 | 1.6 | 1.6 | 0.00 | 0.00 | 0.00 | 75 | 1019.8 |
| 20260506204659 | 17 | 12 | 4.8 | 9.7 | 0.00 | 0.00 | 0.00 | 74 | 1019.6 |
| 20260506204156 | 17 | 337 | 4.8 | 8.0 | 0.00 | 0.00 | 0.00 | 76 | 1019.8 |
| 20260506203655 | 17 | 332 | 3.2 | 4.8 | 0.00 | 0.00 | 0.00 | 76 | 1020.0 |
| 20260506203152 | 17 | 4 | 3.2 | 3.2 | 0.00 | 0.00 | 0.00 | 76 | 1019.9 |
| 20260506202650 | 16 | 2 | 4.8 | 8.0 | 0.00 | 0.00 | 0.00 | 77 | 1020.1 |
| 20260506202145 | 16 | 44 | 1.6 | 1.6 | 0.00 | 0.00 | 0.00 | 80 | 1020.1 |
| 20260506201642 | 16 | 40 | 3.2 | 3.2 | 0.00 | 0.00 | 0.00 | 78 | 1020.0 |
| 20260506201139 | 16 | 10 | 6.4 | 8.0 | 0.00 | 0.00 | 0.00 | 78 | 1020.1 |
| 20260506200635 | 16 | 342 | 3.2 | 3.2 | 0.00 | 0.00 | 0.00 | 77 | 1019.9 |
| 20260506200132 | 16 | 29 | 3.2 | 4.8 | 0.00 | 0.00 | 0.00 | 77 | 1020.0 |
| 20260506195629 | 16 | 343 | 8.0 | 9.7 | 0.00 | 0.00 | 0.00 | 77 | 1020.0 |
| 20260506195125 | 17 | 9 | 6.4 | 9.7 | 0.00 | 0.00 | 0.00 | 77 | 1020.0 |
| 20260506194623 | 17 | 351 | 1.6 | 3.2 | 0.00 | 0.00 | 0.00 | 78 | 1019.9 |
| 20260506194119 | 17 | 229 | 0.0 | 1.6 | 0.00 | 0.00 | 0.00 | 79 | 1020.2 |
| 20260506193617 | 16 | 356 | 0.0 | 1.6 | 0.00 | 0.00 | 0.00 | 79 | 1020.0 |
| 20260506193114 | 16 | 240 | 0.0 | 0.0 | 0.00 | 0.00 | 0.00 | 80 | 1020.0 |
| 20260506192611 | 16 | 334 | 4.8 | 4.8 | 0.00 | 0.00 | 0.00 | 81 | 1020.0 |
| 20260506192106 | 15 | 335 | 4.8 | 4.8 | 0.00 | 0.00 | 0.00 | 82 | 1020.1 |
| 20260506191603 | 15 | 327 | 4.8 | 4.8 | 0.00 | 0.00 | 0.00 | 82 | 1020.3 |
| 20260506191059 | 15 | 355 | 4.8 | 4.8 | 0.00 | 0.00 | 0.00 | 82 | 1020.2 |
| 20260506190557 | 15 | 40 | 1.6 | 3.2 | 0.00 | 0.00 | 0.00 | 82 | 1020.2 |
| 20260506190054 | 15 | 332 | 6.4 | 9.7 | 0.00 | 0.00 | 0.00 | 82 | 1020.4 |
| 20260506185551 | 15 | 23 | 4.8 | 4.8 | 0.00 | 0.00 | 0.00 | 82 | 1020.4 |
| 20260506185047 | 15 | 326 | 6.4 | 8.0 | 0.00 | 0.00 | 0.00 | 83 | 1020.2 |
| 20260506184545 | 15 | 47 | 4.8 | 4.8 | 0.00 | 0.00 | 0.00 | 84 | 1020.3 |
| 20260506184042 | 15 | 339 | 3.2 | 3.2 | 0.00 | 0.00 | 0.00 | 83 | 1020.1 |
| 20260506183538 | 15 | 332 | 3.2 | 4.8 | 0.00 | 0.00 | 0.00 | 84 | 1020.2 |
| 20260506183034 | 15 | 343 | 4.8 | 4.8 | 0.00 | 0.00 | 0.00 | 85 | 1020.1 |
| 20260506182532 | 15 | 11 | 3.2 | 4.8 | 0.00 | 0.00 | 0.00 | 85 | 1020.2 |
| 20260506182029 | 15 | 325 | 4.8 | 8.0 | 0.00 | 0.00 | 0.00 | 85 | 1020.3 |
| 20260506181527 | 15 | 348 | 3.2 | 4.8 | 0.00 | 0.00 | 0.00 | 85 | 1020.3 |
| 20260506181023 | 14 | 330 | 3.2 | 3.2 | 0.00 | 0.00 | 0.00 | 85 | 1020.3 |
| 20260506180520 | 14 | 1 | 4.8 | 8.0 | 0.00 | 0.00 | 0.00 | 85 | 1020.3 |
| 20260506180016 | 14 | 346 | 1.6 | 3.2 | 0.00 | 0.00 | 0.00 | 86 | 1020.2 |
| 20260506175513 | 14 | 35 | 3.2 | 4.8 | 0.00 | 0.00 | 0.00 | 85 | 1020.1 |
| 20260506175009 | 14 | 39 | 3.2 | 4.8 | 0.00 | 0.00 | 0.00 | 85 | 1020.0 |
| 20260506174508 | 14 | 303 | 3.2 | 3.2 | 0.00 | 0.00 | 0.00 | 85 | 1020.1 |
| 20260506174004 | 13 | 16 | 3.2 | 4.8 | 0.00 | 0.00 | 0.00 | 86 | 1019.6 |
| 20260506173502 | 14 | 10 | 4.8 | 8.0 | 0.00 | 0.00 | 0.00 | 85 | 1020.2 |
| 20260506172958 | 14 | 2 | 4.8 | 4.8 | 0.00 | 0.00 | 0.00 | 85 | 1020.0 |
| 20260506172456 | 14 | 312 | 4.8 | 4.8 | 0.00 | 0.00 | 0.00 | 85 | 1020.0 |
| 20260506171952 | 14 | 341 | 3.2 | 3.2 | 0.00 | 0.00 | 0.00 | 86 | 1020.0 |
| 20260506171449 | 14 | 351 | 3.2 | 4.8 | 0.00 | 0.00 | 0.00 | 86 | 1019.8 |
| 20260506170947 | 13 | 317 | 1.6 | 3.2 | 0.00 | 0.00 | 0.00 | 86 | 1019.7 |
| 20260506170443 | 13 | 322 | 3.2 | 4.8 | 0.00 | 0.00 | 0.00 | 86 | 1019.7 |
| 20260506165942 | 13 | 331 | 3.2 | 4.8 | 0.00 | 0.00 | 0.00 | 86 | 1019.9 |
| 20260506165440 | 13 | 357 | 4.8 | 4.8 | 0.00 | 0.00 | 0.00 | 86 | 1020.0 |
| 20260506164936 | 13 | 300 | 3.2 | 3.2 | 0.00 | 0.00 | 0.00 | 86 | 1019.8 |
| 20260506164433 | 13 | 315 | 4.8 | 4.8 | 0.00 | 0.00 | 0.00 | 85 | 1019.9 |
| 20260506163931 | 13 | 310 | 1.6 | 1.6 | 0.00 | 0.00 | 0.00 | 86 | 1019.8 |
| 20260506163425 | 13 | 333 | 1.6 | 3.2 | 0.00 | 0.00 | 0.00 | 85 | 1019.7 |
| 20260506162921 | 13 | 324 | 3.2 | 4.8 | 0.00 | 0.00 | 0.00 | 85 | 1019.8 |
| 20260506162419 | 13 | 314 | 3.2 | 3.2 | 0.00 | 0.00 | 0.00 | 85 | 1019.5 |
| 20260506161916 | 13 | 356 | 4.8 | 4.8 | 0.00 | 0.00 | 0.00 | 85 | 1019.7 |
| 20260506161414 | 13 | 355 | 4.8 | 4.8 | 0.00 | 0.00 | 0.00 | 86 | 1019.6 |
| 20260506160911 | 13 | 312 | 4.8 | 4.8 | 0.00 | 0.00 | 0.00 | 86 | 1019.6 |
| 20260506160408 | 13 | 312 | 1.6 | 3.2 | 0.00 | 0.00 | 0.00 | 87 | 1019.6 |
| 20260506155906 | 13 | 328 | 4.8 | 4.8 | 0.00 | 0.00 | 0.00 | 86 | 1019.7 |
| 20260506155403 | 13 | 339 | 8.0 | 11.3 | 0.00 | 0.00 | 0.00 | 86 | 1019.3 |
| 20260506153525 | 13 | 328 | 3.2 | 4.8 | 0.00 | 0.00 | 0.00 | 86 | 1019.4 |
| 20260506153022 | 13 | 320 | 4.8 | 4.8 | 0.00 | 0.00 | 0.00 | 85 | 1019.3 |
| 20260506152519 | 13 | 306 | 3.2 | 4.8 | 0.00 | 0.00 | 0.00 | 85 | 1019.2 |
| 20260506152018 | 13 | 253 | 1.6 | 1.6 | 0.00 | 0.00 | 0.00 | 84 | 1018.9 |
| 20260506151515 | 13 | 198 | 0.0 | 0.0 | 0.00 | 0.00 | 0.00 | 86 | 1019.0 |
| 20260506151012 | 13 | 318 | 1.6 | 1.6 | 0.00 | 0.00 | 0.00 | 86 | 1019.1 |
| 20260506150508 | 13 | 298 | 1.6 | 1.6 | 0.00 | 0.00 | 0.00 | 86 | 1019.4 |
| 20260506150005 | 13 | 299 | 3.2 | 3.2 | 0.00 | 0.00 | 0.00 | 87 | 1019.4 |
| 20260506145501 | 12 | 9 | 0.0 | 1.6 | 0.00 | 0.00 | 0.00 | 87 | 1019.2 |
| 20260506144959 | 12 | 325 | 4.8 | 4.8 | 0.00 | 0.00 | 0.00 | 88 | 1019.5 |
| 20260506144456 | 12 | 227 | 0.0 | 1.6 | 0.00 | 0.00 | 0.00 | 88 | 1019.3 |
| 20260506143954 | 12 | 194 | 4.8 | 4.8 | 0.00 | 0.00 | 0.00 | 88 | 1019.6 |
| 20260506143451 | 12 | 311 | 4.8 | 8.0 | 0.00 | 0.00 | 0.00 | 88 | 1019.4 |
| 20260506142949 | 12 | 237 | 6.4 | 9.7 | 0.00 | 0.00 | 0.00 | 89 | 1019.6 |
| 20260506142446 | 12 | 306 | 0.0 | 1.6 | 0.00 | 0.00 | 0.00 | 89 | 1019.5 |
| 20260506141944 | 12 | 295 | 1.6 | 1.6 | 0.00 | 0.00 | 0.00 | 90 | 1019.5 |
| 20260506141442 | 12 | 352 | 4.8 | 4.8 | 0.00 | 0.00 | 0.00 | 90 | 1019.3 |
| 20260506140940 | 12 | 292 | 4.8 | 4.8 | 0.00 | 0.00 | 0.00 | 90 | 1019.4 |
| 20260506140437 | 12 | 284 | 1.6 | 1.6 | 0.00 | 0.00 | 0.00 | 91 | 1019.4 |
| 20260506135933 | 12 | 256 | 0.0 | 1.6 | 0.00 | 0.00 | 0.00 | 91 | 1019.4 |
| 20260506135431 | 12 | 292 | 1.6 | 3.2 | 0.00 | 0.00 | 0.00 | 91 | 1019.1 |
| 20260506134927 | 12 | 307 | 4.8 | 8.0 | 0.00 | 0.00 | 0.00 | 91 | 1018.9 |
| 20260506134423 | 12 | 288 | 1.6 | 3.2 | 0.00 | 0.00 | 0.00 | 91 | 1018.8 |
| 20260506133920 | 12 | 189 | 1.6 | 1.6 | 0.00 | 0.00 | 0.00 | 91 | 1018.6 |
| 20260506133417 | 12 | 289 | 1.6 | 3.2 | 0.00 | 0.00 | 0.00 | 91 | 1018.8 |
| 20260506132914 | 12 | 293 | 1.6 | 1.6 | 0.00 | 0.00 | 0.00 | 91 | 1018.9 |
| 20260506132411 | 12 | 342 | 4.8 | 8.0 | 0.00 | 0.00 | 0.00 | 91 | 1018.7 |
| 20260506131909 | 12 | 293 | 4.8 | 8.0 | 0.00 | 0.00 | 0.00 | 91 | 1018.8 |
| 20260506131405 | 12 | 321 | 3.2 | 3.2 | 0.00 | 0.00 | 0.00 | 91 | 1018.8 |
| 20260506130902 | 12 | 235 | 0.0 | 1.6 | 0.00 | 0.00 | 0.00 | 91 | 1018.5 |
| 20260506130358 | 12 | 324 | 1.6 | 1.6 | 0.00 | 0.00 | 0.00 | 91 | 1018.5 |
| 20260506125857 | 12 | 304 | 4.8 | 4.8 | 0.00 | 0.00 | 0.00 | 91 | 1018.6 |
| 20260506125355 | 12 | 306 | 3.2 | 3.2 | 0.00 | 0.00 | 0.00 | 91 | 1018.7 |
| 20260506124853 | 12 | 200 | 1.6 | 3.2 | 0.00 | 0.00 | 0.00 | 91 | 1018.5 |
| 20260506124349 | 12 | 312 | 3.2 | 4.8 | 0.00 | 0.00 | 0.00 | 91 | 1018.2 |
| 20260506123847 | 12 | 355 | 8.0 | 9.7 | 0.00 | 0.00 | 0.00 | 91 | 1018.2 |
| 20260506123345 | 12 | 348 | 4.8 | 8.0 | 0.00 | 0.00 | 0.00 | 91 | 1018.3 |
| 20260506122842 | 12 | 274 | 3.2 | 4.8 | 0.00 | 0.00 | 0.00 | 92 | 1018.0 |
| 20260506122339 | 12 | 318 | 1.6 | 3.2 | 0.00 | 0.00 | 0.00 | 92 | 1018.3 |
| 20260506121837 | 12 | 302 | 0.0 | 1.6 | 0.00 | 0.00 | 0.00 | 92 | 1018.3 |
| 20260506121334 | 12 | 303 | 1.6 | 3.2 | 0.00 | 0.00 | 0.00 | 92 | 1018.0 |
| 20260506120831 | 12 | 310 | 4.8 | 8.0 | 0.00 | 0.00 | 0.00 | 92 | 1017.9 |
| 20260506120329 | 12 | 236 | 1.6 | 1.6 | 0.00 | 0.00 | 0.00 | 92 | 1018.1 |
| 20260506115826 | 12 | 216 | 0.0 | 1.6 | 0.00 | 0.00 | 0.00 | 92 | 1018.2 |
| 20260506115324 | 12 | 284 | 3.2 | 3.2 | 0.00 | 0.00 | 0.00 | 92 | 1018.2 |
| 20260506114822 | 12 | 334 | 4.8 | 8.0 | 0.00 | 0.00 | 0.00 | 92 | 1018.1 |
| 20260506114319 | 12 | 300 | 1.6 | 3.2 | 0.00 | 0.00 | 0.00 | 91 | 1018.0 |
| 20260506113818 | 12 | 223 | 0.0 | 1.6 | 0.00 | 0.00 | 0.00 | 91 | 1018.3 |
| 20260506113315 | 12 | 315 | 8.0 | 9.7 | 0.00 | 0.00 | 0.00 | 91 | 1018.1 |
| 20260506112811 | 12 | 306 | 1.6 | 3.2 | 0.00 | 0.00 | 0.00 | 91 | 1018.1 |
| 20260506112309 | 12 | 306 | 4.8 | 4.8 | 0.00 | 0.00 | 0.00 | 91 | 1017.9 |
| 20260506111806 | 12 | 328 | 8.0 | 9.7 | 0.00 | 0.00 | 0.00 | 91 | 1017.9 |
| 20260506111304 | 12 | 309 | 4.8 | 8.0 | 0.00 | 0.00 | 0.00 | 91 | 1017.7 |
| 20260506110801 | 12 | 242 | 3.2 | 4.8 | 0.00 | 0.00 | 0.00 | 91 | 1017.8 |
| 20260506110258 | 12 | 306 | 4.8 | 4.8 | 0.00 | 0.00 | 0.00 | 91 | 1017.9 |
| 20260506105754 | 12 | 320 | 4.8 | 4.8 | 0.00 | 0.00 | 0.00 | 91 | 1017.8 |
| 20260506105251 | 12 | 324 | 6.4 | 11.3 | 0.00 | 0.00 | 0.00 | 91 | 1017.7 |
| 20260506104749 | 12 | 316 | 1.6 | 3.2 | 0.00 | 0.00 | 0.00 | 90 | 1017.6 |
| 20260506104247 | 12 | 228 | 4.8 | 8.0 | 0.00 | 0.00 | 0.00 | 90 | 1017.6 |
| 20260506103744 | 12 | 298 | 4.8 | 4.8 | 0.00 | 0.00 | 0.00 | 90 | 1017.6 |
| 20260506103241 | 13 | 313 | 8.0 | 11.3 | 0.00 | 0.00 | 0.00 | 90 | 1017.5 |
| 20260506102739 | 13 | 233 | 3.2 | 3.2 | 0.00 | 0.00 | 0.00 | 90 | 1017.5 |
| 20260506102237 | 13 | 323 | 4.8 | 8.0 | 0.00 | 0.00 | 0.00 | 90 | 1017.4 |
| 20260506101733 | 13 | 323 | 6.4 | 8.0 | 0.00 | 0.00 | 0.00 | 90 | 1017.3 |
| 20260506101230 | 13 | 215 | 3.2 | 4.8 | 0.00 | 0.00 | 0.00 | 90 | 1017.3 |
| 20260506100728 | 13 | 318 | 4.8 | 4.8 | 0.00 | 0.00 | 0.00 | 90 | 1017.1 |
| 20260506100226 | 13 | 266 | 3.2 | 3.2 | 0.00 | 0.00 | 0.00 | 90 | 1017.1 |
| 20260506095724 | 13 | 213 | 0.0 | 1.6 | 0.00 | 0.00 | 0.00 | 89 | 1017.0 |
| 20260506095220 | 13 | 289 | 4.8 | 4.8 | 0.00 | 0.00 | 0.00 | 89 | 1017.1 |
| 20260506094717 | 13 | 344 | 4.8 | 4.8 | 0.00 | 0.00 | 0.00 | 89 | 1017.1 |
| 20260506094215 | 13 | 286 | 0.0 | 1.6 | 0.00 | 0.00 | 0.00 | 89 | 1016.9 |
| 20260506093714 | 13 | 334 | 3.2 | 4.8 | 0.00 | 0.00 | 0.00 | 89 | 1016.9 |
| 20260506093210 | 13 | 300 | 3.2 | 3.2 | 0.00 | 0.00 | 0.00 | 89 | 1016.8 |
| 20260506092708 | 13 | 272 | 1.6 | 1.6 | 0.00 | 0.00 | 0.00 | 89 | 1016.8 |
| 20260506092206 | 13 | 263 | 1.6 | 1.6 | 0.00 | 0.00 | 0.00 | 89 | 1016.7 |
| 20260506091703 | 13 | 295 | 1.6 | 3.2 | 0.00 | 0.00 | 0.00 | 89 | 1016.7 |
| 20260506091200 | 13 | 306 | 4.8 | 8.0 | 0.00 | 0.00 | 0.00 | 89 | 1016.7 |
| 20260506090658 | 13 | 319 | 4.8 | 8.0 | 0.00 | 0.00 | 0.00 | 89 | 1016.7 |
| 20260506090154 | 13 | 332 | 6.4 | 9.7 | 0.00 | 0.00 | 0.00 | 89 | 1016.7 |
| 20260506085652 | 13 | 57 | 3.2 | 3.2 | 0.00 | 0.00 | 0.00 | 89 | 1016.5 |
| 20260506085148 | 13 | 238 | 1.6 | 3.2 | 0.00 | 0.00 | 0.00 | 89 | 1016.9 |
| 20260506084644 | 13 | 198 | 4.8 | 8.0 | 0.00 | 0.00 | 0.00 | 89 | 1016.8 |
| 20260506084141 | 13 | 227 | 0.0 | 1.6 | 0.00 | 0.00 | 0.00 | 89 | 1016.9 |
| 20260506083638 | 13 | 238 | 0.0 | 0.0 | 0.00 | 0.00 | 0.00 | 88 | 1016.8 |
| 20260506083136 | 13 | 324 | 6.4 | 8.0 | 0.00 | 0.00 | 0.00 | 88 | 1016.7 |
| 20260506082632 | 13 | 314 | 4.8 | 4.8 | 0.00 | 0.00 | 0.00 | 88 | 1016.9 |
| 20260506082128 | 13 | 201 | 1.6 | 3.2 | 0.00 | 0.00 | 0.00 | 88 | 1016.8 |
| 20260506081626 | 13 | 311 | 1.6 | 3.2 | 0.00 | 0.00 | 0.00 | 88 | 1016.6 |
| 20260506081124 | 13 | 225 | 0.0 | 0.0 | 0.00 | 0.00 | 0.00 | 88 | 1016.5 |
| 20260506080621 | 13 | 317 | 1.6 | 3.2 | 0.00 | 0.00 | 0.00 | 88 | 1016.6 |
| 20260506080118 | 13 | 311 | 4.8 | 4.8 | 0.00 | 0.00 | 0.00 | 88 | 1016.6 |
| 20260506073102 | 13 | 310 | 3.2 | 3.2 | 0.00 | 0.00 | 0.00 | 88 | 1016.4 |
| 20260506072558 | 13 | 269 | 3.2 | 3.2 | 0.00 | 0.00 | 0.00 | 88 | 1016.5 |
| 20260506072056 | 13 | 340 | 3.2 | 3.2 | 0.00 | 0.00 | 0.00 | 88 | 1016.5 |
| 20260506071554 | 13 | 313 | 1.6 | 3.2 | 0.00 | 0.00 | 0.00 | 88 | 1016.3 |
| 20260506071051 | 13 | 313 | 6.4 | 8.0 | 0.00 | 0.00 | 0.00 | 88 | 1016.2 |
| 20260506070548 | 13 | 302 | 3.2 | 3.2 | 0.00 | 0.00 | 0.00 | 88 | 1016.2 |